createdAt,value
2022-12-16T00:02:20.947Z,100388.34
2022-12-16T00:07:42.963Z,100382.84
2022-12-16T00:13:09.071Z,100387.00
2022-12-16T00:18:32.703Z,100385.50
2022-12-16T00:23:55.618Z,100379.97
2022-12-16T00:29:17.579Z,100384.75
2022-12-16T00:34:39.384Z,100388.28
2022-12-16T00:40:01.363Z,100387.75
2022-12-16T00:45:23.285Z,100393.66
2022-12-16T00:50:54.928Z,100384.34
2022-12-16T00:56:17.409Z,100391.09
2022-12-16T01:01:39.299Z,100377.56
2022-12-16T01:07:01.261Z,100366.16
2022-12-16T01:12:23.237Z,100377.81
2022-12-16T01:17:46.590Z,100384.94
2022-12-16T01:23:08.800Z,100382.41
2022-12-16T01:28:30.796Z,100380.09
2022-12-16T01:33:52.688Z,100389.41
2022-12-16T01:39:14.612Z,100390.47
2022-12-16T01:44:36.498Z,100370.53
2022-12-16T01:50:15.113Z,100359.19
2022-12-16T01:55:50.260Z,100335.13
2022-12-16T02:01:13.410Z,100352.53
2022-12-16T02:06:35.379Z,100335.91
2022-12-16T02:12:32.420Z,100345.66
2022-12-16T02:18:20.530Z,100330.09
2022-12-16T02:24:14.620Z,100317.56
2022-12-16T02:29:59.726Z,100329.28
2022-12-16T02:35:32.604Z,100326.94
2022-12-16T02:41:01.957Z,100323.75
2022-12-16T02:46:27.542Z,100315.34
2022-12-16T02:51:50.036Z,100310.19
2022-12-16T02:57:17.802Z,100306.50
2022-12-16T03:02:48.485Z,100287.56
2022-12-16T03:08:18.112Z,100282.41
2022-12-16T03:13:45.118Z,100276.91
2022-12-16T03:19:09.251Z,100274.94
2022-12-16T03:24:31.402Z,100277.28
2022-12-16T03:30:06.365Z,100276.25
2022-12-16T03:35:45.248Z,100273.81
2022-12-16T03:41:08.177Z,100273.19
2022-12-16T03:46:30.171Z,100261.66
2022-12-16T03:51:54.576Z,100253.97
2022-12-16T03:57:16.519Z,100228.47
2022-12-16T04:02:38.886Z,100243.03
2022-12-16T04:08:02.257Z,100241.09
2022-12-16T04:13:24.313Z,100234.31
2022-12-16T04:18:47.531Z,100232.03
2022-12-16T04:24:16.702Z,100222.50
2022-12-16T04:29:38.722Z,100234.34
2022-12-16T04:35:00.572Z,100234.44
2022-12-16T04:40:22.376Z,100237.41
2022-12-16T04:45:46.954Z,100229.63
2022-12-16T04:51:08.796Z,100226.38
2022-12-16T04:56:30.643Z,100215.22
2022-12-16T05:01:52.588Z,100211.44
2022-12-16T05:07:14.643Z,100220.69
2022-12-16T05:12:36.538Z,100218.00
2022-12-16T05:17:58.328Z,100195.47
2022-12-16T05:23:20.128Z,100195.75
2022-12-16T05:28:42.049Z,100191.03
2022-12-16T05:34:03.922Z,100202.81
2022-12-16T05:39:25.755Z,100206.75
2022-12-16T05:44:47.612Z,100218.13
2022-12-16T05:50:09.540Z,100223.94
2022-12-16T05:55:34.117Z,100229.91
2022-12-16T06:00:56.248Z,100224.56
2022-12-16T06:06:18.075Z,100227.44
2022-12-16T06:11:39.920Z,100225.47
2022-12-16T06:17:01.788Z,100248.88
2022-12-16T06:22:23.639Z,100243.38
2022-12-16T06:27:51.215Z,100247.38
2022-12-16T06:33:13.102Z,100244.72
2022-12-16T06:38:34.977Z,100253.00
2022-12-16T06:43:56.854Z,100227.00
2022-12-16T06:49:18.779Z,100230.84
2022-12-16T06:54:40.605Z,100220.19
2022-12-16T07:00:02.726Z,100219.81
2022-12-16T07:05:24.559Z,100236.53
2022-12-16T07:10:46.396Z,100246.53
2022-12-16T07:16:08.407Z,100246.66
2022-12-16T07:21:30.245Z,100243.91
2022-12-16T07:26:52.269Z,100250.28
2022-12-16T07:32:14.126Z,100246.91
2022-12-16T07:37:38.683Z,100252.06
2022-12-16T07:43:00.552Z,100264.06
2022-12-16T07:48:22.450Z,100250.75
2022-12-16T07:53:44.311Z,100242.84
2022-12-16T07:59:06.137Z,100242.09
2022-12-16T08:04:27.991Z,100233.31
2022-12-16T08:09:49.829Z,100223.16
2022-12-16T08:15:11.702Z,100223.31
2022-12-16T08:20:33.781Z,100226.72
2022-12-16T08:25:55.805Z,100208.53
2022-12-16T08:31:17.800Z,100212.19
2022-12-16T08:36:39.751Z,100203.13
2022-12-16T08:42:01.620Z,100213.22
2022-12-16T08:47:23.616Z,100208.66
2022-12-16T08:52:45.556Z,100215.97
2022-12-16T08:58:07.433Z,100214.34
2022-12-16T09:03:29.426Z,100207.59
2022-12-16T09:08:51.335Z,100196.09
2022-12-16T09:14:13.206Z,100165.16
2022-12-16T09:19:35.045Z,100151.19
2022-12-16T09:24:56.903Z,100139.38
2022-12-16T09:30:18.834Z,100134.00
2022-12-16T09:35:40.723Z,100121.00
2022-12-16T09:41:31.467Z,100122.78
2022-12-16T09:47:08.541Z,100116.78
2022-12-16T09:52:36.905Z,100106.78
2022-12-16T09:57:58.892Z,100095.59
2022-12-16T10:03:34.753Z,100099.44
2022-12-16T10:09:02.371Z,100103.56
2022-12-16T10:14:36.508Z,100102.41
2022-12-16T10:20:16.548Z,100109.53
2022-12-16T10:25:52.797Z,100102.28
2022-12-16T10:31:17.950Z,100108.94
2022-12-16T10:36:41.517Z,100070.94
2022-12-16T10:42:04.464Z,100080.47
2022-12-16T10:47:26.342Z,100080.22
2022-12-16T10:52:56.502Z,100080.53
2022-12-16T10:58:36.141Z,100064.03
2022-12-16T11:03:58.051Z,100065.16
2022-12-16T11:09:25.734Z,100061.78
2022-12-16T11:15:27.023Z,100057.78
2022-12-16T11:20:34.766Z,100055.28
2022-12-16T11:26:17.643Z,100058.72
2022-12-16T11:31:39.580Z,100048.66
2022-12-16T11:37:02.258Z,100050.94
2022-12-16T11:42:27.770Z,100042.97
2022-12-16T11:48:07.759Z,100033.50
2022-12-16T11:53:36.351Z,100021.75
2022-12-16T11:59:04.569Z,100016.34
2022-12-16T12:04:26.547Z,100024.69
2022-12-16T12:10:02.420Z,100032.25
2022-12-16T12:15:37.114Z,100037.41
2022-12-16T12:21:24.702Z,100036.34
2022-12-16T12:27:12.334Z,100039.91
2022-12-16T12:32:47.385Z,100040.22
2022-12-16T12:38:29.606Z,100026.00
2022-12-16T12:44:06.352Z,100022.44
2022-12-16T12:49:52.940Z,100040.25
2022-12-16T12:55:28.687Z,100055.94
2022-12-16T13:00:55.350Z,100040.09
2022-12-16T13:06:18.963Z,100046.66
2022-12-16T13:12:08.427Z,100043.88
2022-12-16T13:17:57.341Z,100031.38
2022-12-16T13:23:40.947Z,100047.22
2022-12-16T13:29:24.262Z,100042.19
2022-12-16T13:34:46.300Z,100057.22
2022-12-16T13:40:25.367Z,100053.81
2022-12-16T13:46:14.388Z,100071.34
2022-12-16T13:51:38.957Z,100065.34
2022-12-16T13:57:03.608Z,100047.66
2022-12-16T14:02:40.574Z,100046.38
2022-12-16T14:08:03.361Z,100061.97
2022-12-16T14:13:49.955Z,100075.63
2022-12-16T14:19:14.437Z,100069.47
2022-12-16T14:24:38.570Z,100082.88
2022-12-16T14:30:01.976Z,100082.81
2022-12-16T14:35:26.385Z,100076.09
2022-12-16T14:40:51.639Z,100070.84
2022-12-16T14:46:31.678Z,100087.50
2022-12-16T14:51:53.539Z,100114.59
2022-12-16T14:57:27.333Z,100101.94
2022-12-16T15:02:51.411Z,100120.72
2022-12-16T15:08:13.704Z,100124.03
2022-12-16T15:13:36.558Z,100135.78
2022-12-16T15:19:01.367Z,100126.19
2022-12-16T15:24:25.661Z,100134.06
2022-12-16T15:29:47.523Z,100149.09
2022-12-16T15:35:27.663Z,100146.78
2022-12-16T15:40:51.309Z,100139.00
2022-12-16T15:46:32.968Z,100141.34
2022-12-16T15:51:54.824Z,100154.84
2022-12-16T15:57:34.542Z,100170.91
2022-12-16T16:02:56.496Z,100167.09
2022-12-16T16:08:18.433Z,100169.06
2022-12-16T16:13:41.611Z,100167.44
2022-12-16T16:19:04.437Z,100166.53
2022-12-16T16:24:26.275Z,100158.88
2022-12-16T16:29:48.077Z,100177.28
2022-12-16T16:35:09.918Z,100176.56
2022-12-16T16:40:35.293Z,100170.63
2022-12-16T16:45:57.567Z,100176.56
2022-12-16T16:51:19.500Z,100194.28
2022-12-16T16:56:41.476Z,100193.44
2022-12-16T17:02:10.122Z,100203.47
2022-12-16T17:07:32.053Z,100217.72
2022-12-16T17:12:54.029Z,100224.91
2022-12-16T17:18:16.076Z,100219.03
2022-12-16T17:23:38.249Z,100227.50
2022-12-16T17:29:00.111Z,100242.44
2022-12-16T17:34:21.970Z,100232.09
2022-12-16T17:39:43.767Z,100231.34
2022-12-16T17:45:06.090Z,100247.38
2022-12-16T17:50:27.920Z,100254.00
2022-12-16T17:55:49.783Z,100247.03
2022-12-16T18:01:11.628Z,100253.06
2022-12-16T18:06:33.633Z,100271.69
2022-12-16T18:11:55.506Z,100273.41
2022-12-16T18:17:17.386Z,100277.66
2022-12-16T18:22:39.272Z,100298.09
2022-12-16T18:28:01.228Z,100300.38
2022-12-16T18:33:23.060Z,100313.03
2022-12-16T18:38:45.013Z,100313.06
2022-12-16T18:44:10.306Z,100318.72
2022-12-16T18:49:32.324Z,100318.53
2022-12-16T18:54:54.329Z,100326.56
2022-12-16T19:00:16.449Z,100320.88
2022-12-16T19:05:38.368Z,100336.16
2022-12-16T19:11:00.324Z,100336.25
2022-12-16T19:16:22.509Z,100350.41
2022-12-16T19:27:26.348Z,100369.78
2022-12-16T19:32:48.817Z,100364.31
2022-12-16T19:38:14.274Z,100377.06
2022-12-16T19:43:36.155Z,100382.97
2022-12-16T19:48:58.046Z,100378.94
2022-12-16T19:54:19.932Z,100375.28
2022-12-16T19:59:41.816Z,100390.28
2022-12-16T20:05:03.932Z,100408.97
2022-12-16T20:10:25.842Z,100409.19
2022-12-16T20:15:47.730Z,100409.63
2022-12-16T20:21:09.741Z,100417.06
2022-12-16T20:26:31.658Z,100444.41
2022-12-16T20:31:55.751Z,100432.56
2022-12-16T20:37:17.866Z,100418.00
2022-12-16T20:42:39.811Z,100423.91
2022-12-16T20:48:02.580Z,100430.41
2022-12-16T20:53:24.467Z,100431.66
2022-12-16T20:58:46.305Z,100424.78
2022-12-16T21:04:08.212Z,100431.22
2022-12-16T21:09:31.493Z,100431.88
2022-12-16T21:14:53.381Z,100430.78
2022-12-16T21:20:15.642Z,100440.16
2022-12-16T21:25:37.431Z,100450.97
2022-12-16T21:30:59.673Z,100450.44
2022-12-16T21:36:21.495Z,100454.00
2022-12-16T21:41:43.461Z,100455.00
2022-12-16T21:47:05.294Z,100453.91
2022-12-16T21:52:27.175Z,100468.41
2022-12-16T21:57:49.054Z,100483.13
2022-12-16T22:03:10.913Z,100496.28
2022-12-16T22:08:32.924Z,100493.13
2022-12-16T22:13:54.874Z,100501.63
2022-12-16T22:19:18.187Z,100497.41
2022-12-16T22:24:40.041Z,100514.69
2022-12-16T22:30:02.010Z,100530.94
2022-12-16T22:35:23.910Z,100529.88
2022-12-16T22:40:57.165Z,100548.19
2022-12-16T22:46:19.127Z,100537.50
2022-12-16T22:51:41.053Z,100540.38
2022-12-16T22:57:02.870Z,100549.44
2022-12-16T23:02:24.698Z,100562.78
2022-12-16T23:07:46.753Z,100565.78
2022-12-16T23:13:11.041Z,100565.91
2022-12-16T23:18:32.885Z,100568.88
2022-12-16T23:23:57.008Z,100542.91
2022-12-16T23:29:19.080Z,100559.66
2022-12-16T23:32:29.617Z,100357.25
2022-12-16T23:34:45.713Z,100566.25
2022-12-16T23:40:08.819Z,100582.50
2022-12-16T23:45:31.994Z,100579.03
2022-12-16T23:50:54.552Z,100544.66
2022-12-16T23:56:18.201Z,100560.41
